Time;durP1;ratioP1;P1;durP2;ratioP2;P2;SDS_P1;SDS_P2;PMS_P1;PMS_P2;Temp;Humidity;BMP_temperature;BMP_pressure;BME280_temperature;BME280_humidity;BME280_pressure;Samples;Min_cycle;Max_cycle;Signal;HPM_P1;HPM_P2
2024/01/23 00:02:00;;;;;;;21.25;13.82;;;21.90;99.90;;;;;;4953375;29;20047;-53
2024/01/23 00:04:26;;;;;;;23.35;13.95;;;21.90;99.90;;;;;;4953437;29;20102;-53
2024/01/23 00:06:51;;;;;;;20.35;13.48;;;21.90;99.90;;;;;;4953563;29;20444;-53
2024/01/23 00:09:17;;;;;;;18.35;13.18;;;21.90;99.90;;;;;;4953242;29;20048;-53
2024/01/23 00:11:43;;;;;;;22.20;13.18;;;21.90;99.90;;;;;;4953385;29;20087;-53
2024/01/23 00:14:09;;;;;;;18.75;12.10;;;21.90;99.90;;;;;;4953514;29;20110;-53
2024/01/23 00:16:35;;;;;;;21.98;13.32;;;21.90;99.90;;;;;;4953251;29;20029;-53
2024/01/23 00:19:00;;;;;;;20.52;13.38;;;21.80;99.90;;;;;;4956726;29;20032;-53
2024/01/23 00:21:26;;;;;;;20.38;13.02;;;21.80;99.90;;;;;;4956819;29;20086;-53
2024/01/23 00:23:52;;;;;;;21.83;14.43;;;21.80;99.90;;;;;;4957039;29;20403;-53
2024/01/23 00:26:18;;;;;;;23.27;15.32;;;21.80;99.90;;;;;;4939660;29;20027;-53
2024/01/23 00:28:44;;;;;;;22.45;13.80;;;21.80;99.90;;;;;;4956797;29;20428;-53
2024/01/23 00:31:10;;;;;;;21.92;13.75;;;21.80;99.90;;;;;;4939631;29;20023;-53
2024/01/23 00:33:35;;;;;;;23.30;14.23;;;21.80;99.90;;;;;;4956889;29;20070;-53
2024/01/23 00:36:01;;;;;;;20.52;14.00;;;21.80;99.90;;;;;;4939579;29;20027;-53
2024/01/23 00:38:27;;;;;;;23.83;14.50;;;21.70;99.90;;;;;;4956664;29;20058;-53
2024/01/23 00:40:53;;;;;;;24.58;15.07;;;21.70;99.90;;;;;;4956787;29;20094;-53
2024/01/23 00:43:19;;;;;;;25.13;15.10;;;21.70;99.90;;;;;;4956728;29;20045;-53
2024/01/23 00:45:44;;;;;;;22.92;14.95;;;21.70;99.90;;;;;;4956442;29;20015;-53
2024/01/23 00:48:10;;;;;;;27.23;15.93;;;21.70;99.90;;;;;;4956518;29;20043;-53
2024/01/23 00:50:36;;;;;;;24.17;15.60;;;21.70;99.90;;;;;;4956505;29;20110;-53
2024/01/23 00:53:02;;;;;;;23.15;15.30;;;21.60;99.90;;;;;;4956378;29;20035;-53
2024/01/23 00:55:28;;;;;;;25.98;16.15;;;21.60;99.90;;;;;;4956218;29;20440;-54
2024/01/23 00:57:53;;;;;;;26.38;15.35;;;21.60;99.90;;;;;;4956350;29;20024;-53
2024/01/23 01:00:20;;;;;;;25.23;15.55;;;21.60;99.90;;;;;;4956907;29;20193;-53
2024/01/23 01:02:45;;;;;;;24.38;16.33;;;21.60;99.90;;;;;;4956102;29;20064;-54
2024/01/23 01:05:11;;;;;;;27.30;17.40;;;21.60;99.90;;;;;;4956297;29;20023;-54
2024/01/23 01:07:37;;;;;;;24.10;15.40;;;21.60;99.90;;;;;;4939125;29;20064;-54
2024/01/23 01:10:04;;;;;;;27.10;16.33;;;21.60;99.90;;;;;;4955852;29;20086;-54
2024/01/23 01:12:30;;;;;;;29.25;17.15;;;21.60;99.90;;;;;;4956047;29;20033;-54
2024/01/23 01:14:56;;;;;;;24.85;16.95;;;21.60;99.90;;;;;;4955847;29;20035;-54
2024/01/23 01:17:21;;;;;;;26.52;17.00;;;21.50;99.90;;;;;;4938948;29;20023;-54
2024/01/23 01:19:48;;;;;;;28.40;17.08;;;21.50;99.90;;;;;;4955549;29;20035;-54
2024/01/23 01:22:14;;;;;;;27.20;17.02;;;21.50;99.90;;;;;;4955733;29;20106;-54
2024/01/23 01:24:40;;;;;;;29.50;18.63;;;21.50;99.90;;;;;;4955975;29;20122;-55
2024/01/23 01:27:06;;;;;;;29.27;17.63;;;21.50;99.90;;;;;;4955883;29;20371;-54
2024/01/23 01:29:32;;;;;;;29.58;17.42;;;21.50;99.90;;;;;;4954863;28;20063;-54
2024/01/23 01:31:58;;;;;;;30.08;18.08;;;21.40;99.90;;;;;;4955536;29;20428;-54
2024/01/23 01:34:23;;;;;;;27.05;16.98;;;21.40;99.90;;;;;;4955702;29;20027;-54
2024/01/23 01:36:49;;;;;;;26.55;17.58;;;21.40;99.90;;;;;;4955361;29;20535;-53
2024/01/23 01:39:15;;;;;;;27.83;17.98;;;21.40;99.90;;;;;;4955717;29;20020;-53
2024/01/23 01:41:41;;;;;;;29.17;18.48;;;21.40;99.90;;;;;;4955639;29;20454;-54
2024/01/23 01:44:07;;;;;;;29.15;18.05;;;21.40;99.90;;;;;;4955595;29;20023;-53
2024/01/23 01:46:33;;;;;;;30.40;19.67;;;21.40;99.90;;;;;;4955635;29;20085;-53
2024/01/23 01:48:59;;;;;;;28.73;18.30;;;21.40;99.90;;;;;;4955301;29;20407;-53
2024/01/23 01:51:27;;;;;;;29.30;18.45;;;21.40;99.90;;;;;;4955293;29;20019;-53
2024/01/23 01:53:53;;;;;;;30.00;18.15;;;21.30;99.90;;;;;;4955395;29;20028;-54
2024/01/23 01:56:22;;;;;;;29.13;18.27;;;21.30;99.90;;;;;;4937956;29;20030;-55
2024/01/23 01:58:48;;;;;;;27.67;18.15;;;21.30;99.90;;;;;;4955196;29;20031;-55
2024/01/23 02:01:14;;;;;;;32.08;19.20;;;21.30;99.90;;;;;;4955667;29;20435;-54
2024/01/23 02:03:40;;;;;;;29.13;17.98;;;21.30;99.90;;;;;;4955371;29;20039;-55
2024/01/23 02:06:07;;;;;;;30.65;19.15;;;21.30;99.90;;;;;;4955422;29;20455;-55
2024/01/23 02:08:36;;;;;;;30.13;19.10;;;21.30;99.90;;;;;;4937842;29;20027;-54
2024/01/23 02:11:02;;;;;;;31.27;18.88;;;21.30;99.90;;;;;;4955120;29;20027;-54
2024/01/23 02:13:28;;;;;;;28.60;18.42;;;21.30;99.90;;;;;;4954925;29;20383;-54
2024/01/23 02:15:54;;;;;;;28.95;18.92;;;21.20;99.90;;;;;;4955083;29;20461;-54
2024/01/23 02:18:20;;;;;;;30.45;18.60;;;21.20;99.90;;;;;;4954824;29;20059;-54
2024/01/23 02:20:46;;;;;;;31.70;19.30;;;21.20;99.90;;;;;;4955008;29;20027;-55
2024/01/23 02:23:16;;;;;;;30.75;20.08;;;21.20;99.90;;;;;;4954901;29;20075;-55
2024/01/23 02:25:43;;;;;;;29.25;19.80;;;21.20;99.90;;;;;;4954729;29;20022;-55
2024/01/23 02:28:12;;;;;;;33.10;19.63;;;21.20;99.90;;;;;;4955090;29;20035;-54
2024/01/23 02:30:38;;;;;;;31.95;19.70;;;21.20;99.90;;;;;;4941650;29;20015;-55
2024/01/23 02:33:05;;;;;;;37.80;20.17;;;21.20;99.90;;;;;;4954713;29;20042;-54
2024/01/23 02:35:32;;;;;;;31.10;20.35;;;21.20;99.90;;;;;;4954543;29;20427;-54
2024/01/23 02:37:58;;;;;;;32.63;20.80;;;21.20;99.90;;;;;;4954709;29;20089;-55
2024/01/23 02:40:24;;;;;;;30.73;20.02;;;21.20;99.90;;;;;;4954137;28;20042;-55
2024/01/23 02:42:50;;;;;;;30.42;19.05;;;21.20;99.90;;;;;;4954441;29;20042;-55
2024/01/23 02:45:16;;;;;;;31.75;20.85;;;21.10;99.90;;;;;;4937067;29;20039;-55
2024/01/23 02:47:42;;;;;;;31.55;20.67;;;21.10;99.90;;;;;;4954442;29;20147;-54
2024/01/23 02:50:09;;;;;;;29.25;19.42;;;21.10;99.90;;;;;;4954668;29;20039;-54
2024/01/23 02:52:34;;;;;;;35.50;21.73;;;21.10;99.90;;;;;;4954321;29;20019;-55
2024/01/23 02:55:01;;;;;;;33.35;21.30;;;21.10;99.90;;;;;;4954160;29;20035;-52
2024/01/23 02:57:26;;;;;;;37.53;21.48;;;21.10;99.90;;;;;;4936902;29;20027;-53
2024/01/23 02:59:53;;;;;;;32.13;20.77;;;21.10;99.90;;;;;;4954043;29;20030;-53
2024/01/23 03:02:23;;;;;;;35.42;22.10;;;21.10;99.90;;;;;;4954586;29;20066;-53
2024/01/23 03:04:49;;;;;;;32.55;21.50;;;21.10;99.90;;;;;;4953975;29;20030;-53
2024/01/23 03:07:15;;;;;;;33.00;20.83;;;21.00;99.90;;;;;;4954033;29;20031;-54
2024/01/23 03:09:43;;;;;;;34.42;22.35;;;21.00;99.90;;;;;;4953763;29;20079;-53
2024/01/23 03:12:22;;;;;;;35.25;20.67;;;21.00;99.90;;;;;;4954158;29;20106;-52
2024/01/23 03:14:48;;;;;;;34.75;20.95;;;21.00;99.90;;;;;;4953882;29;20388;-52
2024/01/23 03:17:16;;;;;;;34.33;20.85;;;21.00;99.90;;;;;;4954053;29;20028;-53
2024/01/23 03:19:42;;;;;;;31.05;20.80;;;21.00;99.90;;;;;;4953911;29;20028;-53
2024/01/23 03:22:09;;;;;;;34.85;22.00;;;21.00;99.90;;;;;;4936823;29;20058;-52
2024/01/23 03:24:37;;;;;;;34.28;21.95;;;21.00;99.90;;;;;;4953988;29;20024;-53
2024/01/23 03:27:05;;;;;;;34.75;21.67;;;21.00;99.90;;;;;;4953699;29;20528;-52
2024/01/23 03:29:39;;;;;;;36.20;21.95;;;21.00;99.90;;;;;;4952077;29;20049;-54
2024/01/23 03:32:05;;;;;;;37.10;23.08;;;21.00;99.90;;;;;;4948233;29;20043;-52
2024/01/23 03:34:32;;;;;;;32.13;20.60;;;21.00;99.90;;;;;;4951820;29;20062;-54
2024/01/23 03:37:00;;;;;;;34.67;20.58;;;21.00;99.90;;;;;;4952358;29;20480;-54
2024/01/23 03:39:27;;;;;;;31.58;21.08;;;21.00;99.90;;;;;;4951401;28;20078;-53
2024/01/23 03:41:53;;;;;;;33.90;21.25;;;20.90;99.90;;;;;;4953394;29;20015;-53
2024/01/23 03:44:21;;;;;;;31.83;21.55;;;20.90;99.90;;;;;;4953615;29;20027;-54
2024/01/23 03:46:46;;;;;;;;;;;20.90;99.90;;;;;;4953917;29;20030;-54
2024/01/23 03:49:12;;;;;;;33.10;22.27;;;20.90;99.90;;;;;;4953386;29;20283;-54
2024/01/23 03:51:38;;;;;;;35.63;21.60;;;20.90;99.90;;;;;;4953727;28;20023;-53
2024/01/23 03:54:04;;;;;;;34.65;21.33;;;20.90;99.90;;;;;;4957040;29;20027;-53
2024/01/23 03:56:30;;;;;;;32.80;21.38;;;20.90;99.90;;;;;;4957373;29;20031;-54
2024/01/23 03:58:56;;;;;;;35.60;22.20;;;20.90;99.90;;;;;;4957211;29;20382;-54
2024/01/23 04:01:21;;;;;;;36.40;22.63;;;20.90;99.90;;;;;;4940344;29;20103;-54
2024/01/23 04:03:47;;;;;;;37.90;23.15;;;20.80;99.90;;;;;;4957326;29;20443;-54
2024/01/23 04:06:13;;;;;;;36.30;23.00;;;20.90;99.90;;;;;;4957079;29;20110;-54
2024/01/23 04:08:39;;;;;;;36.15;23.15;;;20.80;99.90;;;;;;4957456;29;20035;-53
2024/01/23 04:11:04;;;;;;;38.55;23.75;;;20.80;99.90;;;;;;4957352;29;20115;-54
2024/01/23 04:13:30;;;;;;;36.58;22.67;;;20.80;99.90;;;;;;4956967;29;20038;-54
2024/01/23 04:15:56;;;;;;;33.53;22.38;;;20.80;99.90;;;;;;4957245;29;20573;-53
2024/01/23 04:18:22;;;;;;;35.58;21.83;;;20.80;99.90;;;;;;4956931;29;20023;-53
2024/01/23 04:20:48;;;;;;;35.50;23.02;;;20.80;99.90;;;;;;4957089;29;20480;-53
2024/01/23 04:23:14;;;;;;;33.42;22.15;;;20.80;99.90;;;;;;4956888;29;20034;-54
2024/01/23 04:25:39;;;;;;;35.58;22.70;;;20.80;99.90;;;;;;4957205;29;20023;-53
2024/01/23 04:28:05;;;;;;;34.67;23.05;;;20.80;99.90;;;;;;4957242;29;20110;-53
2024/01/23 04:30:31;;;;;;;33.97;22.60;;;20.70;99.90;;;;;;4956742;29;20554;-54
2024/01/23 04:32:57;;;;;;;34.05;21.08;;;20.70;99.90;;;;;;4956607;29;20074;-56
2024/01/23 04:35:23;;;;;;;33.40;21.63;;;20.70;99.90;;;;;;4956619;29;20023;-55
2024/01/23 04:37:49;;;;;;;34.95;22.65;;;20.70;99.90;;;;;;4956810;29;20468;-53
2024/01/23 04:40:15;;;;;;;34.50;20.88;;;20.70;99.90;;;;;;4956638;29;20043;-54
2024/01/23 04:42:41;;;;;;;35.28;21.38;;;20.70;99.90;;;;;;4939306;29;20189;-53
2024/01/23 04:45:08;;;;;;;35.55;21.25;;;20.70;99.90;;;;;;4956904;29;20081;-53
2024/01/23 04:47:34;;;;;;;33.97;21.33;;;20.70;99.90;;;;;;4939361;29;20423;-53
2024/01/23 04:50:01;;;;;;;34.90;21.17;;;20.70;99.90;;;;;;4956566;29;20501;-53
2024/01/23 04:52:27;;;;;;;34.63;20.85;;;20.70;99.90;;;;;;4954741;29;20387;-54
2024/01/23 04:54:52;;;;;;;32.60;21.42;;;20.70;99.90;;;;;;4953828;29;20348;-53
2024/01/23 04:57:18;;;;;;;35.05;22.02;;;20.60;99.90;;;;;;4955245;29;20034;-54
2024/01/23 04:59:44;;;;;;;33.67;20.83;;;20.60;99.90;;;;;;4954851;29;20515;-52
2024/01/23 05:02:13;;;;;;;32.03;20.98;;;20.60;99.90;;;;;;4956028;29;20051;-52
2024/01/23 05:04:39;;;;;;;33.25;21.30;;;20.60;99.90;;;;;;4937754;29;20078;-52
2024/01/23 05:07:05;;;;;;;32.10;20.17;;;20.60;99.90;;;;;;4956406;29;20021;-51
2024/01/23 05:09:31;;;;;;;34.55;20.55;;;20.60;99.90;;;;;;4938860;29;20043;-53
2024/01/23 05:11:57;;;;;;;30.00;19.38;;;20.60;99.90;;;;;;4956166;29;20012;-54
2024/01/23 05:14:23;;;;;;;31.83;20.60;;;20.60;99.90;;;;;;4938939;29;20088;-53
2024/01/23 05:16:49;;;;;;;30.63;19.40;;;20.60;99.90;;;;;;4955978;29;20254;-54
2024/01/23 05:19:15;;;;;;;30.08;18.65;;;20.60;99.90;;;;;;4955897;29;20098;-53
2024/01/23 05:21:41;;;;;;;30.30;19.20;;;20.50;99.90;;;;;;4955832;29;20034;-54
2024/01/23 05:24:07;;;;;;;28.45;18.10;;;20.50;99.90;;;;;;4956241;29;20035;-54
2024/01/23 05:26:32;;;;;;;29.35;19.08;;;20.50;99.90;;;;;;4955736;29;20031;-53
2024/01/23 05:28:58;;;;;;;31.67;19.02;;;20.50;99.90;;;;;;4955797;29;20055;-53
2024/01/23 05:31:25;;;;;;;28.60;17.95;;;20.50;99.90;;;;;;4955902;29;20015;-53
2024/01/23 05:33:50;;;;;;;31.10;18.83;;;20.50;99.90;;;;;;4955706;29;20023;-53
2024/01/23 05:36:18;;;;;;;33.78;18.63;;;20.50;99.90;;;;;;4955777;29;20019;-54
2024/01/23 05:38:44;;;;;;;27.13;17.83;;;20.50;99.90;;;;;;4955605;29;20118;-53
2024/01/23 05:41:10;;;;;;;27.50;17.20;;;20.50;99.90;;;;;;4956295;29;20487;-54
2024/01/23 05:43:36;;;;;;;28.35;17.10;;;20.40;99.90;;;;;;4955534;29;20027;-53
2024/01/23 05:46:02;;;;;;;27.02;16.50;;;20.50;99.90;;;;;;4955757;29;20027;-53
2024/01/23 05:48:28;;;;;;;26.88;17.17;;;20.40;99.90;;;;;;4955443;29;20590;-54
2024/01/23 05:50:54;;;;;;;26.90;17.25;;;20.40;99.90;;;;;;4955507;29;20015;-54
2024/01/23 05:53:19;;;;;;;35.53;17.30;;;20.40;99.90;;;;;;4955443;29;20030;-54
2024/01/23 05:55:45;;;;;;;28.98;17.42;;;20.40;99.90;;;;;;4955277;29;20030;-54
2024/01/23 05:58:11;;;;;;;25.95;16.45;;;20.40;99.90;;;;;;4955254;29;20011;-53
2024/01/23 06:00:37;;;;;;;27.80;16.70;;;20.40;99.90;;;;;;4955525;29;20106;-53
2024/01/23 06:03:04;;;;;;;28.17;16.50;;;20.40;99.90;;;;;;4955053;29;20208;-54
2024/01/23 06:05:30;;;;;;;26.07;16.70;;;20.40;99.90;;;;;;4955223;29;20535;-54
2024/01/23 06:07:56;;;;;;;29.10;16.13;;;20.40;99.90;;;;;;4954887;29;20022;-53
2024/01/23 06:10:22;;;;;;;29.45;16.02;;;20.30;99.90;;;;;;4955078;29;20031;-53
2024/01/23 06:12:48;;;;;;;24.85;15.65;;;20.30;99.90;;;;;;4955106;29;20122;-54
2024/01/23 06:15:14;;;;;;;26.92;15.63;;;20.30;99.90;;;;;;4954662;28;20090;-53
2024/01/23 06:17:40;;;;;;;26.38;15.43;;;20.30;99.90;;;;;;4954994;29;20094;-54
2024/01/23 06:20:08;;;;;;;27.25;16.02;;;20.30;99.90;;;;;;4954996;29;20468;-54
2024/01/23 06:22:36;;;;;;;26.70;16.13;;;20.30;99.90;;;;;;4955340;29;20027;-54
2024/01/23 06:25:09;;;;;;;28.48;15.18;;;20.30;99.90;;;;;;4937460;29;20023;-54
2024/01/23 06:27:35;;;;;;;26.98;14.68;;;20.30;99.90;;;;;;4954985;29;20027;-54
2024/01/23 06:30:02;;;;;;;24.05;15.57;;;20.30;99.90;;;;;;4954606;29;20090;-54
2024/01/23 06:32:28;;;;;;;26.70;14.95;;;20.30;99.90;;;;;;4954686;29;20388;-54
2024/01/23 06:34:54;;;;;;;26.30;15.00;;;20.30;99.90;;;;;;4954686;29;20039;-55
2024/01/23 06:37:22;;;;;;;45.03;15.82;;;20.20;99.90;;;;;;4954368;29;20024;-55
2024/01/23 06:39:48;;;;;;;24.50;15.75;;;20.20;99.90;;;;;;4954595;29;20491;-54
2024/01/23 06:42:14;;;;;;;26.98;14.90;;;20.30;99.90;;;;;;4954168;29;20035;-54
2024/01/23 06:44:40;;;;;;;23.75;14.70;;;20.20;99.90;;;;;;4954710;29;20038;-54
2024/01/23 06:47:06;;;;;;;24.58;14.48;;;20.20;99.90;;;;;;4954464;29;20428;-53
2024/01/23 06:49:32;;;;;;;25.20;15.52;;;20.20;99.90;;;;;;4954259;29;20035;-54
2024/01/23 06:51:58;;;;;;;23.73;15.35;;;20.20;99.90;;;;;;4936996;29;20117;-54
2024/01/23 06:54:23;;;;;;;24.25;14.63;;;20.20;99.90;;;;;;4954093;29;20035;-54
2024/01/23 06:56:49;;;;;;;23.98;13.93;;;20.20;99.90;;;;;;4954263;29;20441;-54
2024/01/23 06:59:18;;;;;;;25.55;14.13;;;20.20;99.90;;;;;;4921208;29;20027;-55
2024/01/23 07:01:43;;;;;;;26.13;13.48;;;20.10;99.90;;;;;;4954210;29;20512;-55
2024/01/23 07:04:09;;;;;;;23.63;14.55;;;20.20;99.90;;;;;;4954491;29;20038;-54
2024/01/23 07:06:35;;;;;;;24.40;14.77;;;20.20;99.90;;;;;;4954191;29;20139;-54
2024/01/23 07:09:01;;;;;;;24.80;14.23;;;20.20;99.90;;;;;;4953854;29;20476;-54
2024/01/23 07:11:27;;;;;;;19.70;12.65;;;20.20;99.90;;;;;;4953813;29;20030;-54
2024/01/23 07:13:53;;;;;;;24.58;15.00;;;20.20;99.90;;;;;;4953961;29;20110;-54
2024/01/23 07:16:19;;;;;;;24.15;14.18;;;20.10;99.90;;;;;;4953909;29;20448;-54
2024/01/23 07:18:45;;;;;;;21.45;13.02;;;20.10;99.90;;;;;;4953931;29;20051;-53
2024/01/23 07:21:12;;;;;;;24.35;13.88;;;20.10;99.90;;;;;;4936629;29;20058;-54
2024/01/23 07:23:38;;;;;;;23.13;13.52;;;20.10;99.90;;;;;;4953903;29;20024;-54
2024/01/23 07:26:04;;;;;;;25.48;14.80;;;20.10;99.90;;;;;;4936530;29;20030;-54
2024/01/23 07:28:30;;;;;;;20.23;11.95;;;20.10;99.90;;;;;;4935724;29;20757;-55
2024/01/23 07:30:55;;;;;;;22.38;12.85;;;20.10;99.90;;;;;;4953939;29;20105;-55
2024/01/23 07:33:21;;;;;;;20.60;12.77;;;20.10;99.90;;;;;;4936479;29;20027;-54
2024/01/23 07:35:47;;;;;;;21.45;13.25;;;20.10;99.90;;;;;;4953825;29;20087;-53
2024/01/23 07:38:13;;;;;;;21.30;13.70;;;20.10;99.90;;;;;;4953640;29;20050;-53
2024/01/23 07:40:39;;;;;;;20.35;13.00;;;20.10;99.90;;;;;;4953685;29;20042;-54
2024/01/23 07:43:05;;;;;;;25.02;14.20;;;20.10;99.90;;;;;;4954007;29;20476;-53
2024/01/23 07:45:31;;;;;;;20.75;12.82;;;20.10;99.90;;;;;;4936220;29;20035;-54
2024/01/23 07:47:57;;;;;;;21.10;13.05;;;20.10;99.90;;;;;;4953606;29;20361;-54
2024/01/23 07:50:23;;;;;;;25.92;14.07;;;20.10;99.90;;;;;;4936137;29;20428;-54
2024/01/23 07:52:49;;;;;;;23.05;13.60;;;20.10;99.90;;;;;;4953533;29;20031;-55
2024/01/23 07:55:16;;;;;;;20.65;12.65;;;20.10;99.90;;;;;;4953540;29;20027;-53
2024/01/23 07:57:42;;;;;;;22.67;12.48;;;20.10;99.90;;;;;;4953378;29;20388;-53
2024/01/23 08:00:09;;;;;;;21.73;13.57;;;20.20;99.90;;;;;;4953689;29;20027;-53
2024/01/23 08:02:35;;;;;;;24.27;14.40;;;20.10;99.90;;;;;;4953468;29;20570;-53
2024/01/23 08:05:00;;;;;;;22.63;13.77;;;20.10;99.90;;;;;;4953658;29;20269;-53
2024/01/23 08:07:26;;;;;;;23.55;13.55;;;20.20;99.90;;;;;;4953250;29;20494;-53
2024/01/23 08:09:52;;;;;;;23.70;13.82;;;20.20;99.90;;;;;;4953251;29;20031;-54
2024/01/23 08:12:18;;;;;;;25.17;14.18;;;20.20;99.90;;;;;;4953453;29;20476;-54
2024/01/23 08:14:44;;;;;;;23.65;14.63;;;20.20;99.90;;;;;;4936287;29;20456;-53
2024/01/23 08:17:13;;;;;;;24.05;13.85;;;20.20;99.90;;;;;;4936332;29;20047;-54
2024/01/23 08:19:40;;;;;;;27.15;14.75;;;20.30;99.90;;;;;;4953473;29;20024;-53
2024/01/23 08:22:06;;;;;;;20.88;14.32;;;20.30;99.90;;;;;;4953392;29;20019;-54
2024/01/23 08:24:32;;;;;;;25.00;13.80;;;20.30;99.90;;;;;;4953449;29;20079;-53
2024/01/23 08:26:58;;;;;;;25.45;14.68;;;20.30;99.90;;;;;;4953090;29;20111;-54
2024/01/23 08:29:25;;;;;;;25.85;15.38;;;20.40;99.90;;;;;;4953178;29;20035;-54
2024/01/23 08:31:51;;;;;;;23.50;14.88;;;20.40;99.90;;;;;;4953045;29;20091;-53
2024/01/23 08:34:16;;;;;;;28.88;15.55;;;20.40;99.90;;;;;;4953131;29;20496;-53
2024/01/23 08:36:42;;;;;;;28.17;16.77;;;20.40;99.90;;;;;;4953074;29;20032;-53
2024/01/23 08:39:08;;;;;;;26.73;16.10;;;20.50;99.90;;;;;;4955386;28;20067;-53
2024/01/23 08:41:34;;;;;;;28.35;16.27;;;20.50;99.90;;;;;;4956522;29;20027;-53
2024/01/23 08:43:59;;;;;;;28.30;17.55;;;20.50;99.90;;;;;;4956476;29;20019;-53
2024/01/23 08:46:25;;;;;;;28.05;17.73;;;20.50;99.90;;;;;;4956349;29;20115;-52
2024/01/23 08:48:51;;;;;;;29.88;18.08;;;20.60;99.90;;;;;;4956284;29;20067;-53
2024/01/23 08:51:17;;;;;;;29.52;18.35;;;20.60;99.90;;;;;;4956402;29;20498;-52
2024/01/23 08:53:43;;;;;;;29.80;18.95;;;20.70;99.90;;;;;;4956257;29;20031;-52
2024/01/23 08:56:09;;;;;;;30.55;18.88;;;20.60;99.90;;;;;;4956702;29;20027;-52
2024/01/23 08:58:35;;;;;;;30.52;19.15;;;20.70;99.90;;;;;;4956349;29;20031;-53
2024/01/23 09:01:01;;;;;;;30.35;19.30;;;20.70;99.90;;;;;;4956125;29;20082;-53
2024/01/23 09:03:27;;;;;;;34.30;19.77;;;20.70;99.90;;;;;;4938959;29;20031;-53
2024/01/23 09:05:53;;;;;;;32.90;19.52;;;20.70;99.90;;;;;;4956251;29;20381;-54
2024/01/23 09:08:18;;;;;;;33.35;21.65;;;20.80;99.90;;;;;;4938817;29;20042;-53
2024/01/23 09:10:45;;;;;;;33.83;21.23;;;20.80;99.90;;;;;;4956307;29;20117;-54
2024/01/23 09:13:11;;;;;;;35.95;21.73;;;20.80;99.90;;;;;;4956068;29;20023;-52
2024/01/23 09:15:36;;;;;;;34.85;21.63;;;20.80;99.90;;;;;;4939108;29;20380;-52
2024/01/23 09:18:03;;;;;;;38.67;22.13;;;20.90;99.90;;;;;;4955849;29;20050;-53
2024/01/23 09:20:30;;;;;;;36.45;21.88;;;20.90;99.90;;;;;;4955938;29;20082;-54
2024/01/23 09:22:56;;;;;;;38.63;22.40;;;20.90;99.90;;;;;;4956106;29;20027;-53
2024/01/23 09:25:21;;;;;;;37.15;22.63;;;20.90;99.90;;;;;;4955621;29;20154;-53
2024/01/23 09:27:49;;;;;;;38.58;22.90;;;21.00;99.90;;;;;;4938811;29;20031;-53
2024/01/23 09:30:15;;;;;;;35.72;22.67;;;21.00;99.90;;;;;;4955597;29;20035;-53
2024/01/23 09:32:41;;;;;;;34.55;21.65;;;21.00;99.90;;;;;;4955717;29;20027;-53
2024/01/23 09:35:07;;;;;;;40.20;23.00;;;21.00;99.90;;;;;;4955843;29;20556;-54
2024/01/23 09:37:33;;;;;;;36.75;22.02;;;21.10;99.90;;;;;;4955786;29;20023;-54
2024/01/23 09:39:59;;;;;;;38.55;22.40;;;21.10;99.90;;;;;;4955744;29;20498;-54
2024/01/23 09:42:25;;;;;;;37.92;22.85;;;21.10;99.90;;;;;;4955505;29;20090;-54
2024/01/23 09:44:55;;;;;;;37.85;22.50;;;21.10;99.90;;;;;;4955556;29;20491;-54
2024/01/23 09:47:23;;;;;;;34.33;21.45;;;21.20;99.90;;;;;;4955370;29;20058;-55
2024/01/23 09:49:51;;;;;;;35.00;21.08;;;21.20;99.90;;;;;;4954734;28;20070;-53
2024/01/23 09:52:19;;;;;;;40.45;23.10;;;21.20;99.90;;;;;;4955258;29;20545;-53
2024/01/23 09:54:45;;;;;;;36.95;22.15;;;21.20;99.90;;;;;;4955380;29;20066;-53
2024/01/23 09:57:12;;;;;;;37.40;22.77;;;21.30;99.90;;;;;;4955264;29;20039;-53
2024/01/23 09:59:38;;;;;;;42.45;23.85;;;21.30;99.90;;;;;;4938412;29;20439;-53
2024/01/23 10:02:08;;;;;;;38.75;23.73;;;21.30;99.90;;;;;;4938028;29;20106;-53
2024/01/23 10:04:35;;;;;;;36.22;22.23;;;21.40;99.90;;;;;;4954930;29;20023;-53
2024/01/23 10:07:07;;;;;;;33.25;22.15;;;21.40;99.90;;;;;;4955098;29;20027;-53
2024/01/23 10:09:33;;;;;;;38.20;22.85;;;21.40;99.90;;;;;;4954814;29;20035;-53
2024/01/23 10:11:59;;;;;;;40.28;22.70;;;21.40;99.90;;;;;;4955134;29;20089;-54
2024/01/23 10:14:25;;;;;;;33.70;22.35;;;21.50;99.90;;;;;;4954935;29;20038;-53
2024/01/23 10:16:51;;;;;;;35.35;21.35;;;21.50;99.90;;;;;;4954818;29;20015;-54
2024/01/23 10:19:17;;;;;;;37.97;22.33;;;21.50;99.90;;;;;;4954959;29;20019;-53
2024/01/23 10:21:42;;;;;;;43.20;24.67;;;21.60;99.90;;;;;;4937259;29;20046;-53
2024/01/23 10:24:08;;;;;;;36.15;23.83;;;21.60;99.90;;;;;;4954875;29;20567;-53
2024/01/23 10:26:34;;;;;;;40.60;23.90;;;21.70;99.90;;;;;;4954785;29;20091;-53
2024/01/23 10:29:04;;;;;;;40.53;24.08;;;21.70;99.90;;;;;;4954683;29;20071;-54
2024/01/23 10:31:30;;;;;;;40.38;24.23;;;21.70;99.90;;;;;;4954804;29;20019;-53
2024/01/23 10:33:59;;;;;;;39.00;24.20;;;21.80;99.90;;;;;;4954431;29;20371;-53
2024/01/23 10:36:26;;;;;;;37.08;23.40;;;21.90;99.90;;;;;;4954568;29;20034;-53
2024/01/23 10:38:54;;;;;;;;;;;21.90;99.90;;;;;;4954879;29;20019;-52
2024/01/23 10:41:23;;;;;;;38.40;23.42;;;22.00;99.90;;;;;;4954521;29;19912;-52
2024/01/23 10:43:52;;;;;;;40.92;25.30;;;22.00;99.90;;;;;;4937016;29;20436;-53
2024/01/23 10:46:18;;;;;;;36.97;22.85;;;22.10;99.90;;;;;;4937207;29;20063;-52
2024/01/23 10:48:44;;;;;;;38.67;24.25;;;22.10;99.90;;;;;;4954011;29;20042;-53
2024/01/23 10:51:20;;;;;;;37.72;22.48;;;22.20;99.90;;;;;;4954440;29;20028;-53
2024/01/23 10:54:01;;;;;;;38.55;23.13;;;22.20;99.90;;;;;;4954108;29;20515;-53
2024/01/23 10:56:41;;;;;;;35.17;23.17;;;22.30;99.90;;;;;;4938123;29;20306;-53
2024/01/23 10:59:15;;;;;;;38.95;23.55;;;22.30;99.90;;;;;;4954359;29;20023;-53
2024/01/23 11:01:45;;;;;;;36.60;23.83;;;22.40;99.90;;;;;;4953150;28;20054;-53
2024/01/23 11:04:11;;;;;;;34.58;23.15;;;22.40;99.90;;;;;;4954212;29;20122;-53
2024/01/23 11:06:47;;;;;;;37.88;24.40;;;22.40;99.90;;;;;;4954102;29;20034;-53
2024/01/23 11:09:19;;;;;;;36.50;22.47;;;22.50;99.90;;;;;;4953936;29;20039;-53
2024/01/23 11:11:47;;;;;;;36.05;23.27;;;22.50;99.90;;;;;;4953803;29;20472;-53
2024/01/23 11:14:23;;;;;;;41.35;22.75;;;22.50;99.90;;;;;;4953985;29;20023;-53
2024/01/23 11:17:09;;;;;;;33.95;22.35;;;22.50;99.90;;;;;;4953942;29;20055;-53
2024/01/23 11:19:42;;;;;;;33.78;23.50;;;22.60;99.90;;;;;;4953941;29;20058;-52
2024/01/23 11:22:10;;;;;;;37.63;23.48;;;22.70;99.90;;;;;;4954132;29;20023;-52
2024/01/23 11:24:43;;;;;;;34.35;23.23;;;22.70;99.90;;;;;;4954031;29;20027;-52
2024/01/23 11:27:19;;;;;;;38.75;24.25;;;22.70;99.90;;;;;;4953970;29;20027;-52
2024/01/23 11:29:47;;;;;;;42.63;24.50;;;22.70;99.90;;;;;;4953769;29;20032;-53
2024/01/23 11:32:19;;;;;;;41.83;24.75;;;22.80;99.90;;;;;;4953574;29;20031;-52
2024/01/23 11:34:46;;;;;;;36.30;23.35;;;22.80;99.90;;;;;;4953730;29;20090;-52
2024/01/23 11:37:49;;;;;;;39.60;26.23;;;22.80;99.90;;;;;;4953660;29;20039;-52
2024/01/23 11:40:29;;;;;;;37.50;24.30;;;22.80;99.90;;;;;;4953577;29;20104;-52
2024/01/23 11:42:55;;;;;;;40.03;25.02;;;22.90;99.90;;;;;;4953662;29;20098;-52
2024/01/23 11:45:29;;;;;;;38.42;24.00;;;22.90;99.90;;;;;;4953403;29;20031;-52
2024/01/23 11:47:56;;;;;;;36.90;23.52;;;22.90;99.90;;;;;;4953462;29;20046;-53
2024/01/23 11:50:23;;;;;;;39.90;23.70;;;23.00;99.90;;;;;;4953426;29;20035;-52
2024/01/23 11:52:51;;;;;;;;;;;23.00;99.90;;;;;;4954088;29;20027;-52
2024/01/23 11:55:21;;;;;;;34.30;22.52;;;23.00;99.90;;;;;;4953596;29;19906;-52
2024/01/23 11:57:52;;;;;;;36.90;23.33;;;23.10;99.90;;;;;;4953372;29;20102;-52
2024/01/23 12:00:18;;;;;;;38.45;23.63;;;23.10;99.90;;;;;;4953582;29;20030;-52
2024/01/23 12:02:45;;;;;;;38.05;23.52;;;23.20;99.90;;;;;;4953240;29;20051;-53
2024/01/23 12:05:11;;;;;;;36.38;22.63;;;23.20;99.90;;;;;;4953680;29;20091;-54
2024/01/23 12:07:41;;;;;;;33.88;22.30;;;23.20;99.90;;;;;;4953742;29;20032;-53
2024/01/23 12:10:08;;;;;;;39.85;23.27;;;23.20;99.90;;;;;;4953527;29;20032;-53
2024/01/23 12:12:34;;;;;;;39.20;22.30;;;23.30;99.90;;;;;;4953462;28;20082;-53
2024/01/23 12:15:00;;;;;;;39.10;22.13;;;23.30;99.90;;;;;;4956738;29;20031;-53
2024/01/23 12:17:26;;;;;;;31.38;20.33;;;23.30;99.90;;;;;;4957094;29;20428;-53
2024/01/23 12:19:52;;;;;;;34.10;21.73;;;23.30;99.90;;;;;;4956923;29;20027;-53
2024/01/23 12:22:18;;;;;;;32.17;19.85;;;23.30;99.90;;;;;;4957051;29;20026;-53
2024/01/23 12:24:45;;;;;;;33.10;20.00;;;23.40;99.90;;;;;;4957108;29;20075;-53
2024/01/23 12:27:11;;;;;;;31.67;20.25;;;23.40;99.90;;;;;;4956759;29;20102;-53